Grand Detour, Illinois
Current Conditions -  °F | °C
As of 7:15 AM on Thursday 27 Nov 2014 (Local Time) from KSQI Reporting Station
Overcast Overcast  
Wind Chill: 16°   Ceiling: 3300
Heat Index: 25°   Visibility: 8mi
Dew Point: 19°   Wind: 8mph
Humidity: 80%   Direction: 300°WNW
Pressure: 30.35"   Gusts: NA
Location:  41.8109°N, 89.4546°W
Report Text: KSQI 271315Z 30007KT 8SM BKN033 OVC095 M04/M07 A3035 RMK AO1
Loading
Personal Weather Stations






























Interactive Weather Map New forecast layout! Learn more

10-Day Weather Forecast

Advertisements
Track Severe Weather on mobile